Time;durP1;ratioP1;P1;durP2;ratioP2;P2;SDS_P1;SDS_P2;PMS_P1;PMS_P2;Temp;Humidity;BMP_temperature;BMP_pressure;BME280_temperature;BME280_humidity;BME280_pressure;Samples;Min_cycle;Max_cycle;Signal;HPM_P1;HPM_P2
2023/03/13 00:01:15;;;;;;;11.00;5.97;;;;;;;2.87;59.28;95075.03;5030334;28;20172;-75
2023/03/13 00:03:41;;;;;;;10.33;4.80;;;;;;;2.80;58.79;95073.22;5030017;28;20855;-75
2023/03/13 00:06:07;;;;;;;17.17;6.82;;;;;;;2.68;59.64;95057.13;5029152;28;20598;-75
2023/03/13 00:08:32;;;;;;;9.30;5.70;;;;;;;2.70;59.78;95069.94;5029861;28;20413;-75
2023/03/13 00:11:01;;;;;;;8.50;5.10;;;;;;;2.62;58.66;95063.75;5029849;28;20491;-76
2023/03/13 00:13:27;;;;;;;9.23;5.00;;;;;;;2.72;59.28;95078.41;5030439;28;20178;-75
2023/03/13 00:16:02;;;;;;;8.23;5.50;;;;;;;2.74;60.81;95079.06;5030080;28;20176;-76
2023/03/13 00:18:28;;;;;;;9.83;5.77;;;;;;;2.69;62.45;95063.09;5030716;28;20176;-76
2023/03/13 00:21:06;;;;;;;11.03;4.70;;;;;;;2.61;59.92;95080.31;5030631;28;20179;-76
2023/03/13 00:23:32;;;;;;;7.60;4.87;;;;;;;2.61;60.92;95082.09;5030604;28;20258;-76
2023/03/13 00:26:00;;;;;;;9.00;4.37;;;;;;;2.62;60.77;95081.94;5029993;28;20191;-75
2023/03/13 00:28:30;;;;;;;9.47;5.27;;;;;;;2.61;60.67;95088.09;5030054;28;20643;-75
2023/03/13 00:31:12;;;;;;;10.33;6.07;;;;;;;2.62;60.86;95083.72;5030168;28;20186;-75
2023/03/13 00:33:43;;;;;;;9.77;4.53;;;;;;;2.61;61.20;95089.88;5030096;28;20176;-75
2023/03/13 00:36:15;;;;;;;10.25;5.63;;;;;;;2.51;60.00;95069.22;5028584;28;20435;-74
2023/03/13 00:38:41;;;;;;;11.52;6.55;;;;;;;2.63;59.13;95082.75;5028821;28;20421;-75
2023/03/13 00:41:12;;;;;;;8.40;4.83;;;;;;;2.75;58.04;95089.31;5030420;28;20231;-75
2023/03/13 00:43:39;;;;;;;7.40;4.77;;;;;;;2.59;58.92;95058.06;5030315;28;20210;-75
2023/03/13 00:46:05;;;;;;;7.22;4.53;;;;;;;2.75;57.88;95091.09;5030171;28;20079;-75
2023/03/13 00:48:32;;;;;;;5.40;4.10;;;;;;;2.81;57.50;95086.06;5029969;28;20662;-75
2023/03/13 00:50:58;;;;;;;8.23;4.80;;;;;;;2.73;57.59;95088.63;5028708;28;20416;-75
2023/03/13 00:53:23;;;;;;;11.63;4.80;;;;;;;2.75;57.41;95073.72;5031158;28;20175;-75
2023/03/13 00:56:05;;;;;;;11.10;5.70;;;;;;;2.84;56.85;95088.38;5014733;28;20431;-75
2023/03/13 00:58:33;;;;;;;12.25;6.28;;;;;;;2.91;56.94;95084.16;5032482;28;20474;-75
2023/03/13 01:01:09;;;;;;;12.93;7.25;;;;;;;2.88;56.72;95084.47;5015244;28;20768;-75
2023/03/13 01:03:36;;;;;;;10.20;5.20;;;;;;;2.77;56.83;95074.34;5031801;28;20463;-75
2023/03/13 01:06:04;;;;;;;8.60;4.43;;;;;;;2.62;56.93;95089.72;5033665;28;20261;-75
2023/03/13 01:08:29;;;;;;;8.20;4.70;;;;;;;2.65;57.14;95080.81;5031972;28;20176;-75
2023/03/13 01:11:04;;;;;;;7.43;3.73;;;;;;;2.67;56.96;95070.28;5033338;28;20555;-75
2023/03/13 01:13:33;;;;;;;5.17;3.33;;;;;;;2.55;56.36;95074.94;5031952;28;20474;-75
2023/03/13 01:16:14;;;;;;;5.13;3.50;;;;;;;2.56;56.86;95073.97;5032026;28;20487;-75
2023/03/13 01:18:43;;;;;;;5.27;3.30;;;;;;;2.61;57.58;95079.50;5032768;28;20246;-75
2023/03/13 01:21:10;;;;;;;5.37;3.50;;;;;;;2.57;57.20;95066.00;5032369;28;20171;-75
2023/03/13 01:23:35;;;;;;;5.97;3.78;;;;;;;2.66;56.31;95082.44;5031504;28;20479;-74
2023/03/13 01:26:04;;;;;;;6.77;3.73;;;;;;;2.60;56.91;95086.47;5032778;28;20595;-75
2023/03/13 01:28:29;;;;;;;6.67;4.07;;;;;;;2.62;57.37;95083.72;5032809;28;20182;-75
2023/03/13 01:30:55;;;;;;;5.37;3.83;;;;;;;2.58;56.88;95083.22;5032373;28;20266;-75
2023/03/13 01:33:21;;;;;;;8.83;4.70;;;;;;;2.57;58.49;95086.81;5031531;28;20167;-74
2023/03/13 01:35:46;;;;;;;8.30;4.43;;;;;;;2.49;59.51;95091.97;5032769;28;20246;-75
2023/03/13 01:38:11;;;;;;;8.10;4.70;;;;;;;2.35;59.54;95083.91;5032714;28;20179;-76
2023/03/13 01:40:47;;;;;;;10.10;5.97;;;;;;;2.35;60.39;95100.31;5031742;28;20485;-76
2023/03/13 01:43:21;;;;;;;8.47;5.23;;;;;;;2.28;60.30;95094.13;5032887;28;20259;-76
2023/03/13 01:45:58;;;;;;;9.30;5.45;;;;;;;2.30;60.30;95093.97;5031773;28;20454;-76
2023/03/13 01:48:30;;;;;;;12.40;6.07;;;;;;;2.27;60.26;95097.69;5032907;28;20225;-75
2023/03/13 01:50:58;;;;;;;8.90;5.18;;;;;;;2.27;60.40;95095.06;5031914;28;20408;-76
2023/03/13 01:53:24;;;;;;;9.57;5.18;;;;;;;2.22;59.81;95092.13;5031578;28;20433;-76
2023/03/13 01:55:52;;;;;;;8.18;4.70;;;;;;;2.26;59.75;95098.63;5014941;28;20502;-76
2023/03/13 01:58:17;;;;;;;7.17;4.47;;;;;;;2.23;61.21;95107.56;5032560;28;20182;-76
2023/03/13 02:00:45;;;;;;;13.67;5.70;;;;;;;2.18;63.11;95093.41;5032631;28;20266;-76
2023/03/13 02:03:15;;;;;;;10.60;5.27;;;;;;;2.10;62.87;95083.78;5015031;28;20631;-76
2023/03/13 02:05:42;;;;;;;6.40;4.23;;;;;;;2.13;62.07;95091.28;5031670;28;20200;-76
2023/03/13 02:08:13;;;;;;;7.90;4.97;;;;;;;2.04;63.10;95089.59;5031767;28;20416;-77
2023/03/13 02:10:45;;;;;;;9.93;4.63;;;;;;;1.87;63.80;95073.13;5029971;28;20190;-76
2023/03/13 02:13:14;;;;;;;5.23;3.97;;;;;;;1.88;63.58;95089.50;5032788;28;20636;-77
2023/03/13 02:15:40;;;;;;;9.07;5.23;;;;;;;1.96;63.83;95105.13;5032395;28;20177;-76
2023/03/13 02:18:05;;;;;;;10.27;4.40;;;;;;;1.93;64.23;95099.41;5032301;28;20643;-76
2023/03/13 02:20:30;;;;;;;9.77;4.97;;;;;;;1.88;63.96;95092.09;5032125;28;20183;-76
2023/03/13 02:23:12;;;;;;;9.10;5.03;;;;;;;1.73;64.71;95084.03;5031686;28;20409;-76
2023/03/13 02:25:49;;;;;;;9.83;5.10;;;;;;;1.87;64.08;95117.22;5032213;28;20678;-76
2023/03/13 02:28:17;;;;;;;9.93;5.18;;;;;;;1.86;64.48;95117.38;5030482;28;20814;-76
2023/03/13 02:30:44;;;;;;;8.03;5.20;;;;;;;1.84;64.17;95127.91;5031797;28;20179;-76
2023/03/13 02:33:12;;;;;;;8.97;5.60;;;;;;;1.83;64.38;95128.03;5031984;28;20668;-76
2023/03/13 02:35:38;;;;;;;9.27;4.27;;;;;;;1.80;64.37;95134.38;5014417;28;20194;-76
2023/03/13 02:38:07;;;;;;;9.57;4.60;;;;;;;1.80;64.75;95136.97;5032239;28;20224;-75
2023/03/13 02:40:36;;;;;;;8.87;4.53;;;;;;;1.69;65.33;95134.59;5031834;28;20183;-76
2023/03/13 02:43:07;;;;;;;9.13;4.87;;;;;;;1.72;65.42;95149.88;5031866;28;20180;-75
2023/03/13 02:45:33;;;;;;;11.87;4.97;;;;;;;1.73;65.56;95161.06;5026786;28;20195;-76
2023/03/13 02:47:58;;;;;;;10.60;5.87;;;;;;;1.67;66.24;95149.50;5031915;28;20186;-75
2023/03/13 02:50:24;;;;;;;25.47;9.43;;;;;;;1.65;65.86;95154.00;5031558;28;20258;-75
2023/03/13 02:53:02;;;;;;;24.47;9.40;;;;;;;1.62;66.66;95166.47;5031600;28;20174;-75
2023/03/13 02:55:33;;;;;;;18.10;7.73;;;;;;;1.59;67.00;95169.34;5031420;28;20270;-75
2023/03/13 02:57:58;;;;;;;23.17;9.33;;;;;;;1.60;66.48;95171.00;5031495;28;20574;-75
2023/03/13 03:00:25;;;;;;;25.47;9.33;;;;;;;1.54;66.81;95167.22;5031124;28;20263;-75
2023/03/13 03:02:55;;;;;;;17.23;7.90;;;;;;;1.31;66.02;95130.53;5031066;28;20172;-75
2023/03/13 03:05:21;;;;;;;35.03;11.87;;;;;;;1.60;66.10;95165.81;5030934;28;20245;-76
2023/03/13 03:07:47;;;;;;;25.00;10.00;;;;;;;1.59;66.80;95165.00;5031494;28;20179;-75
2023/03/13 03:10:13;;;;;;;81.97;35.93;;;;;;;1.60;69.33;95171.81;5031629;28;20164;-75
2023/03/13 03:12:39;;;;;;;28.93;12.97;;;;;;;1.67;69.48;95166.84;5031368;28;20178;-75
2023/03/13 03:15:04;;;;;;;28.60;13.03;;;;;;;1.64;68.17;95175.75;5029791;28;20470;-75
2023/03/13 03:17:30;;;;;;;166.33;54.47;;;;;;;1.68;67.09;95179.66;5030983;28;20184;-75
2023/03/13 03:19:55;;;;;;;203.73;60.83;;;;;;;1.68;66.76;95187.44;5031156;28;20603;-75
2023/03/13 03:22:21;;;;;;;147.87;52.40;;;;;;;1.64;67.42;95196.50;5031269;28;20551;-75
2023/03/13 03:24:47;;;;;;;127.17;44.87;;;;;;;1.62;67.17;95201.03;5031079;28;20175;-77
2023/03/13 03:27:12;;;;;;;51.42;23.00;;;;;;;1.53;67.79;95209.69;5029669;28;20508;-77
2023/03/13 03:29:38;;;;;;;25.13;13.10;;;;;;;1.50;67.82;95212.56;5031433;28;20191;-78
2023/03/13 03:32:03;;;;;;;17.03;9.80;;;;;;;1.31;67.43;95182.38;5031124;28;20233;-74
2023/03/13 03:34:30;;;;;;;13.03;6.93;;;;;;;1.33;68.43;95195.19;5030712;28;20299;-75
2023/03/13 03:36:56;;;;;;;13.60;7.27;;;;;;;1.35;67.94;95198.47;5030631;28;20561;-74
2023/03/13 03:39:21;;;;;;;9.63;6.57;;;;;;;1.31;67.83;95200.53;5028913;28;20420;-74
2023/03/13 03:41:46;;;;;;;9.67;4.97;;;;;;;1.35;67.48;95220.03;5030476;28;20215;-74
2023/03/13 03:44:12;;;;;;;7.70;5.13;;;;;;;1.36;68.14;95226.03;5030962;28;20183;-74
2023/03/13 03:46:37;;;;;;;11.07;5.80;;;;;;;1.33;68.44;95236.69;5030424;28;20215;-74
2023/03/13 03:49:02;;;;;;;12.90;6.27;;;;;;;1.27;67.53;95237.28;5030656;28;20218;-74
2023/03/13 03:51:28;;;;;;;9.17;5.87;;;;;;;1.27;66.73;95242.47;5030591;28;20213;-74
2023/03/13 03:53:53;;;;;;;16.83;8.90;;;;;;;1.24;67.38;95234.97;5029670;28;20421;-74
2023/03/13 03:56:19;;;;;;;22.53;8.47;;;;;;;1.10;67.10;95238.84;5030560;28;20167;-74
2023/03/13 03:58:45;;;;;;;16.17;7.53;;;;;;;1.07;68.16;95244.31;5030546;28;20542;-74
2023/03/13 04:01:10;;;;;;;11.83;7.43;;;;;;;1.05;68.90;95248.81;5030477;28;20253;-74
2023/03/13 04:03:35;;;;;;;17.73;8.57;;;;;;;1.03;67.85;95246.41;5030484;28;20301;-74
2023/03/13 04:06:01;;;;;;;19.63;9.27;;;;;;;1.03;68.98;95250.75;5030332;28;20203;-74
2023/03/13 04:08:26;;;;;;;20.10;8.77;;;;;;;1.05;68.68;95251.41;5030419;28;20564;-74
2023/03/13 04:10:52;;;;;;;18.60;9.57;;;;;;;1.05;68.67;95261.78;5030068;28;20183;-75
2023/03/13 04:13:17;;;;;;;15.00;8.37;;;;;;;1.06;68.39;95261.66;5030478;28;20180;-75
2023/03/13 04:15:43;;;;;;;16.10;9.47;;;;;;;0.94;69.44;95249.03;5030407;28;20170;-74
2023/03/13 04:18:08;;;;;;;19.67;10.30;;;;;;;0.97;69.42;95278.03;5030368;28;20655;-75
2023/03/13 04:20:34;;;;;;;17.07;10.27;;;;;;;0.94;68.91;95267.16;5027924;28;20176;-75
2023/03/13 04:23:00;;;;;;;15.87;9.70;;;;;;;0.96;69.09;95273.81;5018450;28;20211;-76
2023/03/13 04:25:25;;;;;;;17.70;10.70;;;;;;;0.95;69.26;95277.38;5030783;28;20294;-76
2023/03/13 04:27:51;;;;;;;19.07;9.87;;;;;;;0.95;69.57;95274.78;5013324;28;20249;-76
2023/03/13 04:30:16;;;;;;;20.97;11.27;;;;;;;0.91;69.92;95277.81;5034104;28;20230;-74
2023/03/13 04:32:42;;;;;;;18.37;10.50;;;;;;;0.80;69.42;95270.19;5033746;28;20654;-74
2023/03/13 04:35:07;;;;;;;18.30;11.43;;;;;;;0.90;69.46;95292.53;5033997;28;20170;-74
2023/03/13 04:37:33;;;;;;;20.60;13.63;;;;;;;0.89;69.69;95303.84;5033036;28;20187;-75
2023/03/13 04:39:59;;;;;;;33.20;18.23;;;;;;;0.88;70.06;95316.94;5019969;28;20212;-74
2023/03/13 04:42:24;;;;;;;30.87;15.83;;;;;;;0.75;70.86;95294.75;5026040;28;20314;-75
2023/03/13 04:44:49;;;;;;;31.03;14.47;;;;;;;0.81;71.23;95310.69;5011708;28;20188;-75
2023/03/13 04:47:15;;;;;;;26.87;15.70;;;;;;;0.79;72.00;95321.19;5020232;28;20203;-75
2023/03/13 04:49:40;;;;;;;25.90;14.57;;;;;;;0.79;72.01;95326.38;5026886;28;20187;-76
2023/03/13 04:52:06;;;;;;;25.20;14.33;;;;;;;0.76;72.45;95321.47;5033676;28;20179;-76
2023/03/13 04:54:31;;;;;;;28.83;14.77;;;;;;;0.81;71.61;95321.06;5034360;28;20568;-76
2023/03/13 04:56:57;;;;;;;26.87;14.87;;;;;;;0.76;72.09;95311.13;5034322;28;20207;-76
2023/03/13 04:59:22;;;;;;;31.40;15.23;;;;;;;0.70;71.64;95309.88;5033671;28;20195;-77
2023/03/13 05:01:48;;;;;;;28.63;15.33;;;;;;;0.75;72.15;95312.06;5033871;28;20267;-75
2023/03/13 05:04:13;;;;;;;33.50;15.30;;;;;;;0.87;71.48;95320.47;5032925;28;20643;-76
2023/03/13 05:06:38;;;;;;;22.63;10.90;;;;;;;0.80;71.42;95309.06;5033648;28;20204;-77
2023/03/13 05:09:04;;;;;;;25.97;12.77;;;;;;;0.97;71.94;95314.31;5033284;28;20286;-76
2023/03/13 05:11:30;;;;;;;19.80;12.63;;;;;;;1.28;70.89;95311.50;5040025;28;20174;-78
2023/03/13 05:13:56;;;;;;;22.40;12.20;;;;;;;1.90;70.00;95297.81;5043032;28;20179;-81
2023/03/13 05:16:21;;;;;;;21.63;12.00;;;;;;;2.95;66.93;95318.63;5039726;28;20208;-79
2023/03/13 05:18:46;;;;;;;25.57;12.17;;;;;;;4.08;62.58;95320.91;5034129;28;20685;-77
2023/03/13 05:21:12;;;;;;;26.70;12.73;;;;;;;5.65;57.14;95336.97;5036814;28;20187;-78
2023/03/13 05:23:37;;;;;;;24.60;12.73;;;;;;;7.24;50.45;95345.16;5039275;28;20190;-79
2023/03/13 05:26:03;;;;;;;24.47;12.40;;;;;;;8.75;45.48;95343.66;5034216;28;20207;-77
2023/03/13 05:28:28;;;;;;;26.60;13.20;;;;;;;10.06;41.80;95355.13;5034330;28;20203;-77
2023/03/13 05:30:54;;;;;;;34.80;15.30;;;;;;;11.37;38.92;95364.41;5033588;28;20179;-77
2023/03/13 05:33:19;;;;;;;31.77;15.10;;;;;;;12.43;36.45;95360.56;5033044;28;20274;-77
2023/03/13 05:35:45;;;;;;;32.03;15.13;;;;;;;13.34;34.64;95362.09;5033406;28;20195;-77
2023/03/13 05:38:11;;;;;;;21.53;12.60;;;;;;;13.86;32.65;95360.84;5033330;28;20229;-77
2023/03/13 05:40:37;;;;;;;24.40;12.77;;;;;;;14.71;31.46;95365.19;5033838;28;20230;-78
2023/03/13 05:43:02;;;;;;;27.95;13.73;;;;;;;15.59;30.10;95375.19;5032610;28;20191;-79
2023/03/13 05:45:28;;;;;;;24.98;13.25;;;;;;;16.30;28.59;95376.00;5033521;28;20206;-78
2023/03/13 05:47:54;;;;;;;25.75;11.10;;;;;;;17.11;27.91;95353.69;5015747;28;20602;-78
2023/03/13 05:50:19;;;;;;;30.00;13.13;;;;;;;17.90;26.78;95357.16;5033621;28;20254;-78
2023/03/13 05:52:45;;;;;;;30.45;13.68;;;;;;;18.59;25.76;95378.94;5032675;28;20179;-78
2023/03/13 05:55:10;;;;;;;22.42;13.32;;;;;;;18.79;25.39;95381.84;5033350;28;20241;-79
2023/03/13 05:57:36;;;;;;;18.38;9.60;;;;;;;19.15;24.30;95377.72;5015060;28;20186;-78
2023/03/13 06:00:03;;;;;;;14.35;8.18;;;;;;;19.48;23.48;95363.38;5037097;28;20265;-78
2023/03/13 06:02:28;;;;;;;14.82;8.02;;;;;;;20.04;23.12;95382.53;5046878;28;20596;-79
2023/03/13 06:04:54;;;;;;;13.45;7.15;;;;;;;20.76;22.55;95390.72;5033796;28;20318;-79
2023/03/13 06:07:19;;;;;;;14.65;7.38;;;;;;;20.90;22.05;95399.91;5033613;28;20550;-78
2023/03/13 06:09:45;;;;;;;9.98;5.63;;;;;;;21.28;21.64;95397.88;5033306;28;20180;-78
2023/03/13 06:12:11;;;;;;;14.00;6.90;;;;;;;21.53;20.85;95379.22;5033296;28;20180;-78
2023/03/13 06:14:39;;;;;;;10.10;5.32;;;;;;;22.10;20.37;95400.44;5033436;28;20683;-79
2023/03/13 06:17:05;;;;;;;9.32;6.25;;;;;;;22.45;19.48;95396.88;5033116;28;20179;-79
2023/03/13 06:19:31;;;;;;;8.70;5.43;;;;;;;22.62;19.90;95395.78;5033282;28;20164;-79
2023/03/13 06:21:56;;;;;;;9.95;5.70;;;;;;;22.87;19.30;95393.03;5039653;28;20176;-78
2023/03/13 06:24:22;;;;;;;8.90;5.88;;;;;;;22.91;19.07;95383.38;5032770;28;20180;-78
2023/03/13 06:26:48;;;;;;;10.57;5.45;;;;;;;22.70;18.94;95387.16;5036286;28;20203;-78
2023/03/13 06:29:14;;;;;;;7.03;5.38;;;;;;;23.03;19.06;95397.25;5042940;28;20183;-78
2023/03/13 06:31:39;;;;;;;8.68;6.10;;;;;;;23.43;17.78;95376.66;5032255;28;20560;-79
2023/03/13 06:34:05;;;;;;;9.40;6.03;;;;;;;23.65;18.15;95383.22;5033154;28;20262;-79
2023/03/13 06:36:30;;;;;;;8.10;5.43;;;;;;;23.69;17.88;95368.16;5032831;28;20167;-81
2023/03/13 06:38:56;;;;;;;9.75;5.85;;;;;;;22.16;18.90;95369.84;5032909;28;20271;-78
2023/03/13 06:41:21;;;;;;;8.55;5.22;;;;;;;19.87;22.01;95374.66;5032058;28;20254;-77
2023/03/13 06:43:46;;;;;;;10.27;5.40;;;;;;;17.62;24.01;95377.50;5032435;28;20186;-77
2023/03/13 06:46:21;;;;;;;11.90;7.15;;;;;;;15.71;26.71;95364.59;5032243;28;20445;-77
2023/03/13 06:48:48;;;;;;;8.98;6.05;;;;;;;14.46;29.02;95374.28;5032077;28;20187;-77
2023/03/13 06:51:15;;;;;;;8.50;6.22;;;;;;;13.43;31.27;95389.91;5014017;28;20186;-77
2023/03/13 06:53:41;;;;;;;10.85;7.82;;;;;;;12.77;33.78;95372.59;5032145;28;20168;-76
2023/03/13 06:56:07;;;;;;;15.03;8.27;;;;;;;12.48;34.17;95363.38;5031931;28;20179;-77
2023/03/13 06:58:33;;;;;;;11.30;8.10;;;;;;;12.14;33.20;95365.53;5014146;28;20181;-76
2023/03/13 07:01:10;;;;;;;11.50;7.77;;;;;;;11.88;35.27;95366.41;5031866;28;20653;-76
2023/03/13 07:03:36;;;;;;;13.90;8.13;;;;;;;11.69;35.78;95355.66;5031796;28;20194;-77
2023/03/13 07:06:03;;;;;;;12.10;7.93;;;;;;;11.64;35.45;95359.94;5031682;28;20697;-76
2023/03/13 07:08:28;;;;;;;10.80;7.67;;;;;;;11.43;35.23;95360.94;5031849;28;20199;-76
2023/03/13 07:10:59;;;;;;;14.07;6.90;;;;;;;11.06;34.68;95354.47;5031751;28;20645;-76
2023/03/13 07:13:24;;;;;;;10.27;6.60;;;;;;;11.17;36.50;95369.66;5031625;28;20238;-76
2023/03/13 07:15:50;;;;;;;13.63;6.43;;;;;;;11.18;37.91;95368.66;5031800;28;20258;-77
2023/03/13 07:18:16;;;;;;;7.13;5.53;;;;;;;11.25;36.07;95364.19;5033204;28;20174;-77
2023/03/13 07:20:41;;;;;;;10.20;6.53;;;;;;;11.13;35.40;95365.00;5031374;28;20181;-76
2023/03/13 07:23:06;;;;;;;6.97;5.63;;;;;;;10.96;35.08;95360.13;5031544;28;20180;-76
2023/03/13 07:25:33;;;;;;;8.70;6.20;;;;;;;10.59;36.26;95321.97;5031532;28;20199;-76
2023/03/13 07:28:00;;;;;;;8.53;6.00;;;;;;;11.06;36.49;95356.28;5031392;28;20182;-77
2023/03/13 07:30:26;;;;;;;9.50;6.03;;;;;;;11.14;36.48;95342.91;5030615;28;20266;-77
2023/03/13 07:32:51;;;;;;;9.73;6.50;;;;;;;11.19;35.67;95361.56;5031353;28;20266;-76
2023/03/13 07:35:16;;;;;;;16.43;7.53;;;;;;;11.24;36.40;95338.84;5031111;28;20156;-76
2023/03/13 07:37:42;;;;;;;11.67;7.13;;;;;;;11.47;34.61;95356.09;5031055;28;20619;-76
2023/03/13 07:40:08;;;;;;;15.43;7.90;;;;;;;11.71;35.21;95358.91;5029508;28;20192;-77
2023/03/13 07:42:33;;;;;;;11.27;7.10;;;;;;;11.82;35.42;95367.25;5033052;28;20226;-77
2023/03/13 07:44:59;;;;;;;14.57;7.43;;;;;;;11.96;35.40;95368.84;5035268;28;20566;-76
2023/03/13 07:47:24;;;;;;;13.80;7.67;;;;;;;11.92;35.26;95334.16;5033688;28;20171;-77
2023/03/13 07:49:50;;;;;;;13.10;7.60;;;;;;;12.24;34.59;95356.19;5032897;28;20187;-77
2023/03/13 07:52:16;;;;;;;10.60;7.73;;;;;;;12.26;33.44;95363.91;5030308;28;20179;-76
2023/03/13 07:54:41;;;;;;;13.63;7.20;;;;;;;12.00;33.78;95346.31;5027387;28;20701;-76
2023/03/13 07:57:07;;;;;;;10.20;7.23;;;;;;;11.81;34.51;95349.78;5030484;28;20167;-77
2023/03/13 07:59:32;;;;;;;9.93;7.10;;;;;;;11.50;34.60;95353.06;5030512;28;20176;-76
2023/03/13 08:01:58;;;;;;;11.93;7.57;;;;;;;11.23;34.48;95341.72;5030531;28;20642;-78
2023/03/13 08:04:23;;;;;;;9.80;6.57;;;;;;;11.42;34.93;95346.16;5033811;28;20152;-78
2023/03/13 08:06:50;;;;;;;13.10;6.80;;;;;;;11.41;34.20;95330.56;5034328;28;20199;-77
2023/03/13 08:09:15;;;;;;;10.07;6.47;;;;;;;11.80;35.60;95325.25;5033922;28;20565;-77
2023/03/13 08:11:43;;;;;;;14.37;7.30;;;;;;;12.35;33.46;95331.78;5033830;28;20175;-77
2023/03/13 08:14:08;;;;;;;16.50;7.60;;;;;;;12.64;35.53;95335.69;5033980;28;20168;-76
2023/03/13 08:16:34;;;;;;;15.30;7.40;;;;;;;12.85;34.45;95331.91;5033227;28;20178;-77
2023/03/13 08:19:04;;;;;;;9.57;7.20;;;;;;;13.11;34.35;95346.78;5028096;28;20218;-77
2023/03/13 08:21:32;;;;;;;11.40;7.33;;;;;;;13.52;33.32;95344.44;5034310;28;20265;-77
2023/03/13 08:24:00;;;;;;;20.80;7.47;;;;;;;13.79;31.74;95352.97;5034046;28;20182;-80
2023/03/13 08:26:29;;;;;;;11.23;7.03;;;;;;;13.75;31.17;95329.81;5034185;28;20549;-81
2023/03/13 08:28:58;;;;;;;11.73;6.50;;;;;;;13.35;30.46;95339.91;5034255;28;20219;-80
2023/03/13 08:31:34;;;;;;;14.23;6.67;;;;;;;13.23;32.58;95354.88;5016355;28;20164;-78
2023/03/13 08:34:00;;;;;;;8.53;6.57;;;;;;;13.00;31.04;95348.28;5034098;28;20184;-78
2023/03/13 08:36:28;;;;;;;17.63;6.87;;;;;;;13.17;33.45;95354.69;5034190;28;20269;-77
2023/03/13 08:38:57;;;;;;;9.90;6.03;;;;;;;13.20;31.92;95361.41;5032612;28;20188;-78
2023/03/13 08:41:25;;;;;;;11.03;6.47;;;;;;;13.50;33.67;95350.97;4995684;28;1112651;-80
2023/03/13 08:43:51;;;;;;;9.73;5.73;;;;;;;13.76;32.83;95353.38;5035016;28;20569;-78
2023/03/13 08:46:17;;;;;;;12.10;6.70;;;;;;;13.50;31.99;95343.03;5049268;28;20191;-78
2023/03/13 08:48:42;;;;;;;7.37;5.87;;;;;;;13.34;33.25;95346.22;5055136;28;20546;-78
2023/03/13 08:51:13;;;;;;;11.70;6.40;;;;;;;13.74;33.30;95352.81;5055023;28;20248;-77
2023/03/13 08:53:41;;;;;;;10.13;6.77;;;;;;;13.84;32.88;95342.53;5054376;28;20171;-77
2023/03/13 08:56:08;;;;;;;8.67;6.50;;;;;;;14.05;31.14;95345.78;5054462;28;20174;-78
2023/03/13 08:58:34;;;;;;;11.63;6.90;;;;;;;14.10;31.03;95348.56;5054322;28;20654;-76
2023/03/13 09:01:03;;;;;;;13.40;6.73;;;;;;;14.16;31.67;95334.47;5048561;28;20254;-77
2023/03/13 09:03:29;;;;;;;9.30;6.53;;;;;;;14.06;33.35;95340.28;5034120;28;20180;-76
2023/03/13 09:05:59;;;;;;;10.07;7.40;;;;;;;13.92;33.20;95344.09;5034074;28;20215;-77
2023/03/13 09:08:25;;;;;;;12.33;6.70;;;;;;;14.11;33.83;95342.25;5034008;28;20171;-77
2023/03/13 09:11:06;;;;;;;10.97;6.83;;;;;;;13.47;32.18;95346.94;5016515;28;20658;-77
2023/03/13 09:13:34;;;;;;;11.20;7.27;;;;;;;13.41;32.11;95346.97;5033672;28;20314;-77
2023/03/13 09:16:03;;;;;;;12.00;7.50;;;;;;;12.80;31.95;95335.19;5033741;28;20179;-76
2023/03/13 09:18:29;;;;;;;12.27;7.80;;;;;;;12.25;34.79;95331.41;5033802;28;20171;-76
2023/03/13 09:20:54;;;;;;;14.53;8.20;;;;;;;11.83;33.69;95326.66;5034036;28;20171;-77
2023/03/13 09:23:21;;;;;;;13.97;7.60;;;;;;;11.54;35.29;95325.25;5033222;28;20187;-76
2023/03/13 09:25:48;;;;;;;12.00;7.43;;;;;;;12.23;35.23;95332.63;5033923;28;20210;-76
2023/03/13 09:28:14;;;;;;;13.03;7.27;;;;;;;12.58;34.83;95333.06;5033619;28;20175;-76
2023/03/13 09:30:39;;;;;;;11.00;6.17;;;;;;;12.80;34.23;95329.88;5015841;28;20840;-75
2023/03/13 09:33:05;;;;;;;9.63;6.83;;;;;;;12.77;33.75;95324.25;5032564;28;20191;-75
2023/03/13 09:35:30;;;;;;;8.20;5.80;;;;;;;13.09;34.50;95333.78;5015342;28;20263;-75
2023/03/13 09:37:56;;;;;;;15.00;6.40;;;;;;;13.33;35.85;95336.66;5032997;28;20168;-75
2023/03/13 09:40:23;;;;;;;8.03;5.63;;;;;;;13.42;34.54;95330.09;5033033;28;20176;-75
2023/03/13 09:42:56;;;;;;;8.73;5.93;;;;;;;13.39;34.94;95336.66;5014625;28;20235;-75
2023/03/13 09:45:30;;;;;;;10.80;6.53;;;;;;;13.34;34.97;95328.53;5033205;28;20206;-77
2023/03/13 09:48:05;;;;;;;12.97;6.20;;;;;;;13.47;34.46;95327.63;5033385;28;20238;-76
2023/03/13 09:50:45;;;;;;;8.63;5.93;;;;;;;13.41;34.88;95321.34;5033345;28;20658;-77
2023/03/13 09:53:19;;;;;;;8.73;5.70;;;;;;;13.35;33.95;95324.06;5030898;28;20249;-77
2023/03/13 09:55:45;;;;;;;10.50;6.40;;;;;;;13.19;35.40;95318.28;5033363;28;20206;-79
2023/03/13 09:58:20;;;;;;;8.40;5.93;;;;;;;12.81;33.12;95320.94;5033707;28;20218;-78
2023/03/13 10:00:52;;;;;;;8.40;6.23;;;;;;;12.65;37.00;95325.91;5033477;28;20179;-78
2023/03/13 10:03:30;;;;;;;10.20;6.70;;;;;;;12.68;36.05;95312.31;5032977;28;20172;-76
2023/03/13 10:06:03;;;;;;;9.67;6.70;;;;;;;12.57;37.46;95316.41;5032801;28;20218;-76
2023/03/13 10:08:31;;;;;;;11.20;7.83;;;;;;;12.34;36.69;95311.66;5032870;28;20175;-77
2023/03/13 10:11:03;;;;;;;11.13;7.17;;;;;;;12.28;35.86;95309.06;5033242;28;20192;-79
2023/03/13 10:13:44;;;;;;;9.10;6.67;;;;;;;12.06;36.97;95285.59;5029291;28;20175;-79
2023/03/13 10:16:16;;;;;;;9.87;6.37;;;;;;;12.05;36.36;95294.53;5024895;28;20234;-79
2023/03/13 10:18:46;;;;;;;10.83;7.00;;;;;;;11.81;36.32;95287.31;5031864;28;20179;-79
2023/03/13 10:21:20;;;;;;;8.37;5.97;;;;;;;11.64;37.73;95276.38;5029490;28;20184;-79
2023/03/13 10:23:50;;;;;;;10.17;6.30;;;;;;;11.51;40.68;95255.28;5030100;28;20514;-78
2023/03/13 10:26:22;;;;;;;9.77;6.57;;;;;;;11.31;37.44;95276.44;5028694;28;20211;-79
2023/03/13 10:28:50;;;;;;;9.70;6.03;;;;;;;10.98;38.51;95273.78;5029530;28;20369;-79
2023/03/13 10:31:29;;;;;;;14.83;7.57;;;;;;;10.91;39.08;95270.34;5030793;28;20677;-79
2023/03/13 10:34:05;;;;;;;10.37;6.53;;;;;;;10.67;37.64;95241.97;5032717;28;20267;-80
2023/03/13 10:36:38;;;;;;;15.50;7.07;;;;;;;10.43;38.99;95238.13;5025217;28;20662;-80
2023/03/13 10:39:13;;;;;;;9.30;6.73;;;;;;;10.54;39.14;95258.59;5014980;28;20646;-79
2023/03/13 10:41:39;;;;;;;10.73;7.57;;;;;;;10.39;38.61;95243.97;5032354;28;20219;-80
2023/03/13 10:44:33;;;;;;;11.70;7.37;;;;;;;10.39;43.10;95238.69;5031615;28;20198;-80
2023/03/13 10:47:04;;;;;;;12.50;7.50;;;;;;;10.18;40.37;95201.03;5016845;28;20219;-79
2023/03/13 10:49:32;;;;;;;14.13;7.43;;;;;;;10.53;39.98;95235.91;5031163;28;20183;-79
2023/03/13 10:52:00;;;;;;;9.10;6.60;;;;;;;10.64;43.32;95237.09;5029096;28;20180;-79
2023/03/13 10:54:36;;;;;;;17.67;7.97;;;;;;;10.75;43.18;95236.50;5028892;28;20180;-79
2023/03/13 10:57:17;;;;;;;13.83;8.20;;;;;;;10.65;41.04;95232.66;5011270;28;20499;-79
2023/03/13 10:59:46;;;;;;;16.70;8.23;;;;;;;10.58;38.81;95233.47;5020669;28;20179;-79
2023/03/13 11:02:22;;;;;;;16.53;8.60;;;;;;;10.53;40.47;95214.84;5029109;28;20208;-79
2023/03/13 11:04:52;;;;;;;12.07;7.97;;;;;;;10.57;40.60;95209.97;5028930;28;20186;-79
2023/03/13 11:07:37;;;;;;;13.63;8.07;;;;;;;10.65;40.13;95212.41;5030358;28;20302;-79
2023/03/13 11:10:23;;;;;;;12.07;8.20;;;;;;;10.66;41.53;95192.97;5030688;28;20322;-79
2023/03/13 11:12:51;;;;;;;10.93;7.73;;;;;;;10.82;42.72;95208.34;5030587;28;20654;-79
2023/03/13 11:15:28;;;;;;;10.77;7.73;;;;;;;10.95;44.72;95213.63;5039407;28;20201;-79
2023/03/13 11:18:07;;;;;;;12.00;7.93;;;;;;;11.08;43.26;95202.25;5032487;28;20164;-79
2023/03/13 11:20:35;;;;;;;15.37;8.40;;;;;;;11.18;40.54;95205.28;5032787;28;20651;-79
2023/03/13 11:23:28;;;;;;;13.50;7.77;;;;;;;11.25;38.49;95192.09;5032595;28;20251;-79
2023/03/13 11:26:11;;;;;;;12.70;7.77;;;;;;;11.16;37.28;95190.69;5038823;28;20213;-77
2023/03/13 11:28:58;;;;;;;13.90;8.73;;;;;;;11.05;37.93;95186.06;5035418;28;20183;-77
2023/03/13 11:31:31;;;;;;;11.40;8.20;;;;;;;11.00;38.13;95188.47;5037171;28;20627;-76
2023/03/13 11:34:18;;;;;;;13.53;8.23;;;;;;;10.87;37.76;95174.34;5036320;28;20183;-77